Time;durP1;ratioP1;P1;durP2;ratioP2;P2;SDS_P1;SDS_P2;PMS_P1;PMS_P2;Temp;Humidity;BMP_temperature;BMP_pressure;BME280_temperature;BME280_humidity;BME280_pressure;Samples;Min_cycle;Max_cycle;Signal;HPM_P1;HPM_P2
2021/09/12 00:01:36;;;;;;;30.10;18.55;;;16.20;99.90;;;;;;4968333;28;20034;-64
2021/09/12 00:04:02;;;;;;;29.33;17.83;;;16.20;99.90;;;;;;4968502;28;20059;-64
2021/09/12 00:06:27;;;;;;;38.80;20.92;;;16.20;99.90;;;;;;4971037;28;20038;-64
2021/09/12 00:08:53;;;;;;;29.92;18.92;;;16.30;99.90;;;;;;4968635;28;20031;-64
2021/09/12 00:11:18;;;;;;;34.17;19.98;;;16.20;99.90;;;;;;4969001;28;20034;-64
2021/09/12 00:13:44;;;;;;;34.13;19.70;;;16.20;99.90;;;;;;4970305;28;20395;-64
2021/09/12 00:16:09;;;;;;;31.58;17.70;;;16.10;99.90;;;;;;4970233;28;20037;-64
2021/09/12 00:18:35;;;;;;;30.52;17.95;;;16.00;99.90;;;;;;4967732;28;20414;-64
2021/09/12 00:21:00;;;;;;;27.80;16.08;;;16.00;99.90;;;;;;4968900;28;20043;-64
2021/09/12 00:23:26;;;;;;;27.98;17.83;;;15.90;99.90;;;;;;4968646;28;20130;-64
2021/09/12 00:25:51;;;;;;;28.60;18.00;;;15.90;99.90;;;;;;4971294;28;20068;-64
2021/09/12 00:28:17;;;;;;;30.35;17.83;;;15.90;99.90;;;;;;4969920;28;20121;-64
2021/09/12 00:30:42;;;;;;;35.42;20.15;;;15.90;99.90;;;;;;4969676;28;20041;-64
2021/09/12 00:33:07;;;;;;;31.27;18.73;;;15.90;99.90;;;;;;4973118;28;20031;-64
2021/09/12 00:35:33;;;;;;;36.55;19.88;;;15.90;99.90;;;;;;4968088;28;20026;-64
2021/09/12 00:37:58;;;;;;;33.05;20.02;;;15.90;99.90;;;;;;4967168;28;20042;-64
2021/09/12 00:40:24;;;;;;;34.22;19.00;;;15.90;99.90;;;;;;4970610;28;20881;-65
2021/09/12 00:42:49;;;;;;;33.40;19.75;;;15.90;99.90;;;;;;4966573;28;20057;-64
2021/09/12 00:45:15;;;;;;;38.60;20.05;;;15.90;99.90;;;;;;4968952;28;20050;-65
2021/09/12 00:47:40;;;;;;;33.50;19.83;;;15.90;99.90;;;;;;4970400;28;20065;-65
2021/09/12 00:50:06;;;;;;;45.17;20.73;;;15.90;99.90;;;;;;4968487;28;20819;-65
2021/09/12 00:52:31;;;;;;;35.28;20.17;;;15.90;99.90;;;;;;4970772;28;20030;-65
2021/09/12 00:54:57;;;;;;;34.15;20.02;;;15.90;99.90;;;;;;4972772;28;20919;-64
2021/09/12 00:57:22;;;;;;;37.33;21.15;;;15.90;99.90;;;;;;4974251;28;20056;-64
2021/09/12 00:59:49;;;;;;;39.05;21.65;;;15.90;99.90;;;;;;4974239;28;20049;-65
2021/09/12 01:02:17;;;;;;;37.15;22.02;;;15.90;99.90;;;;;;4972062;28;20173;-65
2021/09/12 01:04:43;;;;;;;39.03;21.45;;;15.90;99.90;;;;;;4972558;28;20826;-65
2021/09/12 01:07:08;;;;;;;37.90;21.63;;;15.80;99.90;;;;;;4970928;28;20121;-65
2021/09/12 01:09:34;;;;;;;34.25;19.58;;;15.80;99.90;;;;;;4971781;28;20529;-65
2021/09/12 01:11:59;;;;;;;31.98;19.23;;;16.40;99.90;;;;;;4972956;28;20114;-64
2021/09/12 01:14:25;;;;;;;34.45;20.17;;;15.80;99.90;;;;;;4968868;28;20045;-64
2021/09/12 01:16:50;;;;;;;32.72;19.13;;;15.70;99.90;;;;;;4970214;28;20144;-65
2021/09/12 01:19:16;;;;;;;28.52;17.55;;;15.70;99.90;;;;;;4971368;28;20053;-64
2021/09/12 01:21:41;;;;;;;32.55;19.45;;;15.70;99.90;;;;;;4974384;28;20045;-65
2021/09/12 01:24:07;;;;;;;33.03;18.23;;;15.60;99.90;;;;;;4956508;28;20043;-64
2021/09/12 01:26:32;;;;;;;33.50;18.52;;;15.60;99.90;;;;;;4971717;28;20030;-64
2021/09/12 01:28:58;;;;;;;32.70;18.58;;;15.60;99.90;;;;;;4974771;28;20606;-64
2021/09/12 01:31:23;;;;;;;39.65;20.42;;;15.60;99.90;;;;;;4970257;28;20050;-64
2021/09/12 01:33:49;;;;;;;33.22;20.27;;;15.70;99.90;;;;;;4973959;28;20352;-64
2021/09/12 01:36:14;;;;;;;35.75;20.45;;;15.60;99.90;;;;;;4972972;28;20042;-65
2021/09/12 01:38:40;;;;;;;35.97;21.25;;;15.60;99.90;;;;;;4974130;28;20479;-64
2021/09/12 01:41:05;;;;;;;32.55;19.50;;;15.60;99.90;;;;;;4972522;28;20142;-65
2021/09/12 01:43:30;;;;;;;36.97;20.83;;;15.60;99.90;;;;;;4973159;28;20106;-64
2021/09/12 01:45:56;;;;;;;39.05;19.67;;;15.60;99.90;;;;;;4972223;28;20046;-64
2021/09/12 01:48:21;;;;;;;40.63;23.05;;;15.60;99.90;;;;;;4973974;28;20042;-64
2021/09/12 01:50:47;;;;;;;39.20;22.10;;;15.60;99.90;;;;;;4971581;28;20027;-64
2021/09/12 01:53:12;;;;;;;33.53;20.42;;;15.70;99.90;;;;;;4978265;28;20124;-64
2021/09/12 01:55:38;;;;;;;35.92;21.10;;;15.60;99.90;;;;;;4972446;28;20030;-64
2021/09/12 01:58:03;;;;;;;38.97;22.73;;;16.50;99.90;;;;;;4972629;28;20039;-64
2021/09/12 02:00:29;;;;;;;38.17;21.02;;;15.60;99.90;;;;;;4974280;28;20121;-64
2021/09/12 02:02:54;;;;;;;37.70;22.83;;;15.60;99.90;;;;;;4973585;28;20031;-64
2021/09/12 02:05:20;;;;;;;39.83;23.30;;;15.60;99.90;;;;;;4972691;28;20030;-64
2021/09/12 02:07:45;;;;;;;36.58;23.00;;;15.60;99.90;;;;;;4972049;28;20034;-64
2021/09/12 02:10:11;;;;;;;36.80;22.88;;;15.70;99.90;;;;;;4974591;28;20601;-64
2021/09/12 02:12:36;;;;;;;39.33;23.15;;;15.60;99.90;;;;;;4973246;28;20041;-64
2021/09/12 02:15:02;;;;;;;41.95;25.30;;;15.60;99.90;;;;;;4969558;28;20027;-64
2021/09/12 02:17:27;;;;;;;40.28;23.25;;;15.60;99.90;;;;;;4972624;28;20037;-64
2021/09/12 02:19:52;;;;;;;36.97;21.55;;;15.70;99.90;;;;;;4971873;28;20084;-64
2021/09/12 02:22:18;;;;;;;39.40;23.25;;;16.00;99.90;;;;;;4974069;28;20042;-64
2021/09/12 02:24:43;;;;;;;46.97;24.10;;;15.80;99.90;;;;;;4971620;28;20487;-64
2021/09/12 02:27:09;;;;;;;40.75;24.20;;;15.60;99.90;;;;;;4970935;28;20126;-64
2021/09/12 02:29:35;;;;;;;39.97;22.98;;;15.60;99.90;;;;;;4971703;28;20036;-64
2021/09/12 02:32:00;;;;;;;38.63;21.95;;;15.60;99.90;;;;;;4971505;28;20620;-64
2021/09/12 02:34:26;;;;;;;38.35;22.85;;;15.50;99.90;;;;;;4971028;28;20035;-64
2021/09/12 02:36:51;;;;;;;36.60;21.90;;;15.50;99.90;;;;;;4972125;28;20768;-64
2021/09/12 02:39:16;;;;;;;38.75;22.88;;;15.50;99.90;;;;;;4970737;28;20038;-64
2021/09/12 02:41:42;;;;;;;39.42;23.02;;;15.50;99.90;;;;;;4973630;28;20754;-64
2021/09/12 02:44:07;;;;;;;42.92;24.60;;;15.50;99.90;;;;;;4973062;28;20030;-64
2021/09/12 02:46:33;;;;;;;42.42;23.40;;;15.50;99.90;;;;;;4970539;28;20042;-64
2021/09/12 02:48:58;;;;;;;40.80;24.08;;;15.60;99.90;;;;;;4954596;28;20093;-64
2021/09/12 02:51:24;;;;;;;40.92;23.52;;;15.50;99.90;;;;;;4967765;28;20037;-64
2021/09/12 02:53:49;;;;;;;38.53;23.20;;;15.60;99.90;;;;;;4973718;28;20030;-64
2021/09/12 02:56:15;;;;;;;47.33;24.60;;;15.50;99.90;;;;;;4969498;28;20126;-64
2021/09/12 02:58:40;;;;;;;43.38;25.15;;;15.50;99.90;;;;;;4971812;28;20917;-64
2021/09/12 03:01:06;;;;;;;42.10;23.52;;;15.50;99.90;;;;;;4972053;28;20131;-64
2021/09/12 03:03:31;;;;;;;40.35;24.20;;;15.50;99.90;;;;;;4968436;28;20487;-64
2021/09/12 03:05:57;;;;;;;49.28;27.63;;;15.50;99.90;;;;;;4972225;28;20252;-64
2021/09/12 03:08:22;;;;;;;43.65;25.75;;;15.60;99.90;;;;;;4969795;28;20043;-64
2021/09/12 03:10:48;;;;;;;40.72;22.90;;;15.60;99.90;;;;;;4970406;28;20061;-64
2021/09/12 03:13:13;;;;;;;41.20;24.25;;;15.50;99.90;;;;;;4971070;28;20042;-64
2021/09/12 03:15:39;;;;;;;33.70;22.48;;;15.50;99.90;;;;;;4971078;28;20041;-64
2021/09/12 03:18:04;;;;;;;36.75;21.80;;;15.60;99.90;;;;;;4971321;28;20084;-64
2021/09/12 03:20:30;;;;;;;35.75;21.77;;;15.60;99.90;;;;;;4970026;28;20442;-64
2021/09/12 03:22:55;;;;;;;33.67;21.00;;;15.60;99.90;;;;;;4972263;28;20041;-64
2021/09/12 03:25:20;;;;;;;35.13;21.17;;;15.60;99.90;;;;;;4970175;28;20082;-64
2021/09/12 03:27:46;;;;;;;37.97;22.33;;;15.50;99.90;;;;;;4972073;28;20033;-64
2021/09/12 03:30:12;;;;;;;33.38;20.25;;;15.50;99.90;;;;;;4970414;28;20523;-64
2021/09/12 03:32:37;;;;;;;33.30;21.08;;;15.50;99.90;;;;;;4969666;28;20041;-64
2021/09/12 03:35:03;;;;;;;33.25;20.65;;;15.60;99.90;;;;;;4962525;28;20034;-64
2021/09/12 03:37:28;;;;;;;35.67;21.02;;;15.70;99.90;;;;;;4970072;28;20542;-64
2021/09/12 03:39:53;;;;;;;32.08;19.90;;;15.70;99.90;;;;;;4974881;28;20034;-64
2021/09/12 03:42:19;;;;;;;33.88;20.25;;;15.70;99.90;;;;;;4971493;28;20038;-64
2021/09/12 03:44:44;;;;;;;34.25;20.75;;;15.80;99.90;;;;;;4966324;28;20038;-64
2021/09/12 03:47:10;;;;;;;30.27;19.00;;;15.80;99.90;;;;;;4971172;28;20030;-64
2021/09/12 03:49:35;;;;;;;31.52;19.52;;;15.80;99.90;;;;;;4968885;28;20081;-64
2021/09/12 03:52:01;;;;;;;28.17;18.17;;;16.10;99.90;;;;;;4970977;28;20129;-64
2021/09/12 03:54:26;;;;;;;30.08;20.33;;;15.80;99.90;;;;;;4969574;28;20031;-64
2021/09/12 03:56:52;;;;;;;30.05;18.85;;;15.70;99.90;;;;;;4968881;28;20120;-64
2021/09/12 03:59:17;;;;;;;30.67;18.98;;;15.60;99.90;;;;;;4971357;28;20135;-64
2021/09/12 04:01:43;;;;;;;28.90;19.27;;;15.60;99.90;;;;;;4972020;28;20034;-64
2021/09/12 04:04:08;;;;;;;34.40;20.52;;;15.50;99.90;;;;;;4969783;28;20660;-64
2021/09/12 04:06:34;;;;;;;37.83;22.77;;;15.50;99.90;;;;;;4968623;28;20069;-64
2021/09/12 04:08:59;;;;;;;37.97;22.08;;;15.40;99.90;;;;;;4967904;28;20030;-64
2021/09/12 04:11:25;;;;;;;34.92;20.10;;;15.40;99.90;;;;;;4971225;28;20122;-64
2021/09/12 04:13:50;;;;;;;32.38;20.55;;;15.30;99.90;;;;;;4969627;28;20085;-64
2021/09/12 04:16:15;;;;;;;35.08;20.00;;;15.30;99.90;;;;;;4971456;28;20066;-64
2021/09/12 04:18:41;;;;;;;34.03;19.95;;;15.20;99.90;;;;;;4971475;28;20038;-64
2021/09/12 04:21:06;;;;;;;31.40;20.15;;;15.20;99.90;;;;;;4964204;28;20074;-64
2021/09/12 04:23:32;;;;;;;29.42;19.30;;;15.10;99.90;;;;;;4968882;28;20078;-64
2021/09/12 04:25:57;;;;;;;39.45;22.08;;;15.10;99.90;;;;;;4974930;28;20664;-64
2021/09/12 04:28:23;;;;;;;37.83;20.67;;;15.10;99.90;;;;;;4969654;28;20039;-64
2021/09/12 04:30:48;;;;;;;33.80;21.10;;;15.10;99.90;;;;;;4975049;28;20131;-64
2021/09/12 04:33:14;;;;;;;36.67;20.13;;;15.10;99.90;;;;;;4969093;28;20115;-64
2021/09/12 04:35:39;;;;;;;39.83;21.30;;;15.10;99.90;;;;;;4971570;28;20066;-64
2021/09/12 04:38:05;;;;;;;38.65;22.13;;;15.10;99.90;;;;;;4973440;28;20038;-64
2021/09/12 04:40:30;;;;;;;42.72;23.17;;;15.10;99.90;;;;;;4973611;28;20039;-64
2021/09/12 04:42:56;;;;;;;36.97;21.08;;;15.10;99.90;;;;;;4971486;28;20057;-64
2021/09/12 04:45:21;;;;;;;39.20;21.45;;;15.10;99.90;;;;;;4973373;28;20043;-64
2021/09/12 04:47:47;;;;;;;41.38;24.60;;;15.10;99.90;;;;;;4967215;28;20034;-64
2021/09/12 04:50:12;;;;;;;37.58;22.05;;;15.10;99.90;;;;;;4971625;28;20030;-63
2021/09/12 04:52:38;;;;;;;54.53;23.92;;;15.10;99.90;;;;;;4968297;28;20663;-62
2021/09/12 04:55:03;;;;;;;41.45;21.83;;;15.10;99.90;;;;;;4974615;28;20027;-62
2021/09/12 04:57:29;;;;;;;37.85;19.92;;;15.10;99.90;;;;;;4970588;28;20301;-64
2021/09/12 04:59:54;;;;;;;46.65;22.48;;;15.10;99.90;;;;;;4971655;28;20045;-63
2021/09/12 05:02:20;;;;;;;42.83;23.02;;;15.10;99.90;;;;;;4972305;28;20494;-63
2021/09/12 05:04:45;;;;;;;39.03;21.45;;;15.00;99.90;;;;;;4970919;28;20041;-63
2021/09/12 05:07:11;;;;;;;38.85;21.70;;;15.20;99.90;;;;;;4972890;28;20530;-64
2021/09/12 05:09:36;;;;;;;40.70;22.67;;;15.10;99.90;;;;;;4976194;28;20121;-63
2021/09/12 05:12:01;;;;;;;46.60;23.60;;;15.10;99.90;;;;;;4971018;28;20062;-63
2021/09/12 05:14:27;;;;;;;41.13;22.40;;;15.20;99.90;;;;;;4975735;28;20422;-64
2021/09/12 05:16:52;;;;;;;35.10;20.65;;;15.20;99.90;;;;;;4974286;28;20031;-64
2021/09/12 05:19:18;;;;;;;44.25;22.65;;;15.20;99.90;;;;;;4971255;28;20039;-63
2021/09/12 05:21:43;;;;;;;39.83;21.52;;;15.30;99.90;;;;;;4973548;28;20041;-64
2021/09/12 05:24:09;;;;;;;35.72;20.77;;;15.30;99.90;;;;;;4970756;28;20046;-64
2021/09/12 05:26:34;;;;;;;37.55;20.55;;;15.30;99.90;;;;;;4974690;28;20038;-64
2021/09/12 05:29:00;;;;;;;43.65;22.13;;;15.30;99.90;;;;;;4968468;28;20534;-64
2021/09/12 05:31:25;;;;;;;39.85;21.95;;;15.40;99.90;;;;;;4969590;28;20039;-67
2021/09/12 05:33:51;;;;;;;37.90;20.95;;;15.40;99.90;;;;;;4968494;28;20027;-64
2021/09/12 05:36:17;;;;;;;37.17;21.58;;;15.60;99.90;;;;;;4970426;28;20027;-65
2021/09/12 05:38:43;;;;;;;34.00;20.25;;;15.50;99.90;;;;;;4973432;28;20047;-65
2021/09/12 05:41:08;;;;;;;31.98;18.83;;;15.50;99.90;;;;;;4971274;28;20040;-65
2021/09/12 05:43:34;;;;;;;38.35;21.63;;;15.50;99.90;;;;;;4974754;28;20073;-65
2021/09/12 05:45:59;;;;;;;37.15;21.15;;;15.50;99.90;;;;;;4970681;28;20105;-63
2021/09/12 05:48:25;;;;;;;35.80;21.67;;;15.50;99.90;;;;;;4972822;28;20125;-63
2021/09/12 05:50:50;;;;;;;32.42;19.33;;;15.60;99.90;;;;;;4972679;28;20142;-63
2021/09/12 05:53:18;;;;;;;37.75;20.38;;;15.60;99.90;;;;;;4974321;28;20078;-64
2021/09/12 05:55:43;;;;;;;33.10;19.73;;;15.70;99.90;;;;;;4971521;28;20035;-63
2021/09/12 05:58:09;;;;;;;32.92;19.40;;;15.80;99.90;;;;;;4973586;28;20718;-63
2021/09/12 06:00:34;;;;;;;32.60;19.52;;;15.90;99.90;;;;;;4969723;28;20093;-64
2021/09/12 06:03:00;;;;;;;35.40;20.35;;;16.00;99.90;;;;;;4970440;28;20078;-64
2021/09/12 06:05:25;;;;;;;29.65;19.25;;;16.00;99.90;;;;;;4971174;28;20317;-64
2021/09/12 06:07:51;;;;;;;34.55;19.25;;;16.10;99.90;;;;;;4974448;28;20053;-64
2021/09/12 06:10:16;;;;;;;30.58;20.20;;;16.20;99.90;;;;;;4969685;28;20039;-64
2021/09/12 06:12:42;;;;;;;34.38;18.95;;;16.30;99.90;;;;;;4972924;28;20046;-64
2021/09/12 06:15:07;;;;;;;32.85;19.13;;;16.30;99.90;;;;;;4971138;28;20038;-64
2021/09/12 06:17:33;;;;;;;31.77;19.08;;;16.30;99.90;;;;;;4973216;28;20041;-64
2021/09/12 06:19:58;;;;;;;31.70;19.08;;;16.40;99.90;;;;;;4972424;28;20037;-63
2021/09/12 06:22:24;;;;;;;31.92;18.90;;;16.50;99.90;;;;;;4972760;28;20582;-63
2021/09/12 06:24:49;;;;;;;35.53;18.75;;;16.50;99.90;;;;;;4972489;28;20069;-63
2021/09/12 06:27:15;;;;;;;27.83;17.63;;;16.80;99.90;;;;;;4966870;28;20793;-63
2021/09/12 06:29:40;;;;;;;31.63;18.20;;;16.60;99.90;;;;;;4970784;28;20043;-63
2021/09/12 06:32:06;;;;;;;28.30;16.73;;;16.60;99.90;;;;;;4970602;28;20030;-63
2021/09/12 06:34:31;;;;;;;26.02;16.38;;;16.70;99.90;;;;;;4976252;28;20037;-63
2021/09/12 06:36:58;;;;;;;26.77;17.00;;;16.70;99.90;;;;;;4967534;28;20050;-63
2021/09/12 06:39:23;;;;;;;27.17;17.67;;;16.90;99.90;;;;;;4969411;28;20039;-63
2021/09/12 06:41:49;;;;;;;30.25;17.65;;;17.10;99.90;;;;;;4972981;28;20034;-63
2021/09/12 06:44:14;;;;;;;19.67;14.23;;;17.30;99.90;;;;;;4973211;28;20070;-63
2021/09/12 06:46:40;;;;;;;23.30;14.48;;;17.50;99.90;;;;;;4972353;28;20030;-63
2021/09/12 06:49:05;;;;;;;26.35;15.68;;;17.70;99.90;;;;;;4968509;28;20091;-63
2021/09/12 06:51:30;;;;;;;22.88;14.13;;;17.90;99.90;;;;;;4969026;28;20022;-64
2021/09/12 06:53:56;;;;;;;31.92;18.95;;;18.10;99.90;;;;;;4970016;28;20521;-64
2021/09/12 06:56:21;;;;;;;26.30;15.35;;;18.10;99.90;;;;;;4970269;28;20694;-64
2021/09/12 06:58:47;;;;;;;19.92;12.82;;;18.20;99.90;;;;;;4970658;28;20062;-64
2021/09/12 07:01:12;;;;;;;20.65;13.68;;;18.30;99.90;;;;;;4972031;28;20092;-64
2021/09/12 07:03:38;;;;;;;16.98;11.75;;;18.10;99.90;;;;;;4969430;28;20045;-64
2021/09/12 07:06:03;;;;;;;14.90;11.00;;;18.40;99.90;;;;;;4969027;28;20042;-64
2021/09/12 07:08:29;;;;;;;20.45;13.50;;;18.50;99.90;;;;;;4975246;28;20941;-64
2021/09/12 07:10:54;;;;;;;18.73;13.07;;;18.70;99.90;;;;;;4972532;28;20030;-64
2021/09/12 07:13:20;;;;;;;21.92;13.77;;;18.80;99.90;;;;;;4969376;28;20066;-64
2021/09/12 07:15:45;;;;;;;19.15;13.02;;;18.80;99.90;;;;;;4969877;28;20038;-64
2021/09/12 07:18:11;;;;;;;20.63;14.35;;;18.80;99.90;;;;;;4968137;28;20027;-65
2021/09/12 07:20:36;;;;;;;19.60;13.05;;;18.80;99.90;;;;;;4970016;28;20751;-65
2021/09/12 07:23:02;;;;;;;17.70;11.80;;;18.90;99.90;;;;;;4968700;28;20051;-64
2021/09/12 07:25:27;;;;;;;18.08;10.32;;;19.00;99.90;;;;;;4969363;28;20034;-64
2021/09/12 07:27:54;;;;;;;17.42;10.75;;;19.00;99.90;;;;;;4972813;28;20736;-64
2021/09/12 07:30:19;;;;;;;20.25;14.00;;;19.00;99.90;;;;;;4968763;28;20045;-64
2021/09/12 07:32:45;;;;;;;18.95;12.15;;;18.80;99.90;;;;;;4968354;28;20031;-64
2021/09/12 07:35:10;;;;;;;19.52;14.27;;;18.80;99.90;;;;;;4972957;28;20433;-64
2021/09/12 07:37:36;;;;;;;21.25;14.48;;;18.70;99.90;;;;;;4969629;28;20026;-65
2021/09/12 07:40:01;;;;;;;18.65;12.30;;;18.50;99.90;;;;;;4968388;28;20558;-64
2021/09/12 07:42:28;;;;;;;18.30;11.80;;;18.50;99.90;;;;;;4962183;28;20112;-64
2021/09/12 07:44:53;;;;;;;23.42;13.30;;;18.60;99.90;;;;;;4972778;28;20043;-64
2021/09/12 07:47:19;;;;;;;23.05;15.80;;;18.50;99.90;;;;;;4967695;28;20994;-65
2021/09/12 07:49:44;;;;;;;23.08;13.13;;;18.60;99.90;;;;;;4968718;28;20039;-64
2021/09/12 07:52:10;;;;;;;19.40;12.55;;;18.80;99.90;;;;;;4966984;28;20101;-64
2021/09/12 07:54:36;;;;;;;18.95;12.23;;;18.60;99.90;;;;;;4968077;28;20034;-64
2021/09/12 07:57:01;;;;;;;16.38;11.48;;;18.70;99.90;;;;;;4969407;28;20429;-64
2021/09/12 07:59:28;;;;;;;23.80;14.30;;;18.70;99.90;;;;;;4969187;28;20073;-63
2021/09/12 08:01:53;;;;;;;22.45;14.25;;;18.80;99.90;;;;;;4967831;28;20101;-64
2021/09/12 08:04:18;;;;;;;26.50;16.20;;;18.80;99.90;;;;;;4971024;28;20743;-63
2021/09/12 08:06:44;;;;;;;24.70;16.10;;;18.90;99.90;;;;;;4969327;28;20194;-64
2021/09/12 08:09:09;;;;;;;22.90;13.98;;;18.90;99.90;;;;;;4970836;28;20763;-64
2021/09/12 08:11:35;;;;;;;20.23;13.60;;;19.00;99.90;;;;;;4971991;28;20081;-64
2021/09/12 08:14:00;;;;;;;27.52;15.45;;;19.10;99.90;;;;;;4967689;28;20041;-64
2021/09/12 08:16:26;;;;;;;24.25;15.05;;;19.20;99.90;;;;;;4965920;28;20038;-64
2021/09/12 08:18:51;;;;;;;24.27;14.10;;;19.30;99.90;;;;;;4966926;28;20540;-64
2021/09/12 08:21:17;;;;;;;22.83;12.60;;;19.40;99.90;;;;;;4970399;28;20030;-64
2021/09/12 08:23:42;;;;;;;18.08;11.82;;;19.60;99.90;;;;;;4969299;28;20042;-64
2021/09/12 08:26:08;;;;;;;22.27;15.20;;;19.80;99.90;;;;;;4967510;28;20035;-64
2021/09/12 08:28:33;;;;;;;23.33;13.68;;;20.00;99.90;;;;;;4965303;28;20138;-64
2021/09/12 08:31:00;;;;;;;22.25;14.13;;;20.00;99.90;;;;;;4966376;28;20752;-64
2021/09/12 08:33:25;;;;;;;22.00;12.95;;;20.10;99.90;;;;;;4970301;28;20038;-64
2021/09/12 08:35:50;;;;;;;28.15;14.60;;;20.10;99.90;;;;;;4970633;28;20031;-64
2021/09/12 08:38:16;;;;;;;22.63;13.57;;;20.20;99.90;;;;;;4949623;28;20039;-64
2021/09/12 08:40:41;;;;;;;20.15;13.75;;;20.30;99.90;;;;;;4968940;28;20023;-64
2021/09/12 08:43:07;;;;;;;19.88;12.25;;;20.30;99.90;;;;;;4965940;28;20115;-64
2021/09/12 08:45:33;;;;;;;22.00;13.10;;;20.40;99.90;;;;;;4970181;28;20058;-64
2021/09/12 08:47:58;;;;;;;18.20;12.35;;;20.40;99.90;;;;;;4969240;28;20073;-64
2021/09/12 08:50:24;;;;;;;23.20;14.77;;;20.40;99.90;;;;;;4969819;28;20073;-64
2021/09/12 08:52:49;;;;;;;22.95;15.07;;;20.40;99.90;;;;;;4952726;28;20035;-64
2021/09/12 08:55:14;;;;;;;24.13;14.65;;;20.50;99.90;;;;;;4966427;28;20442;-64
2021/09/12 08:57:40;;;;;;;18.50;12.52;;;20.40;99.90;;;;;;4967776;28;20029;-64
2021/09/12 09:00:05;;;;;;;22.90;14.68;;;20.50;99.90;;;;;;4964815;28;20081;-64
2021/09/12 09:02:31;;;;;;;23.10;12.75;;;20.60;99.90;;;;;;4964258;28;20999;-64
2021/09/12 09:04:56;;;;;;;22.60;12.68;;;20.60;99.90;;;;;;4967905;28;20038;-64
2021/09/12 09:07:22;;;;;;;21.08;13.50;;;20.80;99.90;;;;;;4962008;28;20046;-64
2021/09/12 09:09:47;;;;;;;24.90;13.38;;;20.90;99.90;;;;;;4967508;28;20707;-64
2021/09/12 09:12:13;;;;;;;18.48;12.82;;;21.10;99.90;;;;;;4965267;28;20118;-64
2021/09/12 09:14:38;;;;;;;18.38;12.23;;;20.90;99.90;;;;;;4968774;28;20073;-64
2021/09/12 09:17:04;;;;;;;19.52;13.02;;;21.00;99.90;;;;;;4969326;28;20038;-64
2021/09/12 09:19:29;;;;;;;15.75;11.60;;;21.00;99.90;;;;;;4971532;28;20026;-64
2021/09/12 09:21:55;;;;;;;20.30;11.27;;;21.10;99.90;;;;;;4969499;28;20802;-64
2021/09/12 09:24:25;;;;;;;18.83;12.02;;;21.00;99.90;;;;;;4971481;28;20498;-64
2021/09/12 09:26:50;;;;;;;25.98;14.48;;;21.00;99.90;;;;;;4966658;28;20042;-64
2021/09/12 09:29:16;;;;;;;24.23;13.57;;;20.80;99.90;;;;;;4974176;28;20082;-64
2021/09/12 09:31:41;;;;;;;20.65;12.68;;;20.90;99.90;;;;;;4970237;28;20665;-64
2021/09/12 09:34:07;;;;;;;19.88;13.00;;;20.80;99.90;;;;;;4972845;28;20754;-64
2021/09/12 09:36:32;;;;;;;18.25;11.48;;;20.80;99.90;;;;;;4969183;28;20046;-64
2021/09/12 09:38:58;;;;;;;22.92;14.73;;;20.90;99.90;;;;;;4968531;28;20141;-64
2021/09/12 09:41:23;;;;;;;17.00;11.25;;;20.90;99.90;;;;;;4971233;28;20050;-66
2021/09/12 09:43:49;;;;;;;17.27;11.35;;;21.00;99.90;;;;;;4971877;28;20038;-64
2021/09/12 09:46:14;;;;;;;20.85;13.75;;;21.20;99.90;;;;;;4969629;28;20042;-64
2021/09/12 09:48:41;;;;;;;21.75;13.88;;;21.40;99.90;;;;;;4972254;28;20045;-64
2021/09/12 09:51:07;;;;;;;27.10;13.95;;;21.60;99.90;;;;;;4969369;28;20034;-64
2021/09/12 09:53:32;;;;;;;23.92;13.50;;;21.70;99.90;;;;;;4968677;28;20689;-64
2021/09/12 09:55:58;;;;;;;20.52;12.48;;;21.70;99.90;;;;;;4968408;28;20148;-64
2021/09/12 09:58:23;;;;;;;16.90;11.13;;;21.80;99.90;;;;;;4971926;28;20526;-64
2021/09/12 10:00:49;;;;;;;18.77;12.40;;;21.90;99.90;;;;;;4969230;28;20039;-64
2021/09/12 10:03:14;;;;;;;18.40;11.68;;;22.10;99.90;;;;;;4971348;28;20034;-64
2021/09/12 10:05:40;;;;;;;17.80;11.10;;;22.30;99.90;;;;;;4965792;28;20068;-64
2021/09/12 10:08:05;;;;;;;26.60;13.35;;;22.30;99.90;;;;;;4970989;28;20672;-64
2021/09/12 10:10:31;;;;;;;19.92;12.85;;;22.20;99.90;;;;;;4974941;28;20393;-64
2021/09/12 10:12:56;;;;;;;15.93;9.95;;;22.20;99.90;;;;;;4968405;28;20038;-67
2021/09/12 10:15:22;;;;;;;20.00;12.20;;;22.30;99.90;;;;;;4967829;28;20039;-68
2021/09/12 10:17:47;;;;;;;19.77;12.93;;;22.30;99.90;;;;;;4969780;28;20026;-67
2021/09/12 10:20:12;;;;;;;19.88;12.40;;;22.50;99.90;;;;;;4970685;28;20487;-67
2021/09/12 10:22:38;;;;;;;16.67;10.18;;;22.70;99.90;;;;;;4972467;28;20038;-67
2021/09/12 10:25:03;;;;;;;20.35;11.90;;;23.00;99.90;;;;;;4971321;28;20616;-67
2021/09/12 10:27:29;;;;;;;15.73;10.43;;;23.10;99.90;;;;;;4973082;28;20041;-67
2021/09/12 10:29:54;;;;;;;19.08;11.80;;;23.30;99.90;;;;;;4967704;28;20096;-68
2021/09/12 10:32:20;;;;;;;17.38;11.05;;;23.50;99.90;;;;;;4969436;28;20060;-67
2021/09/12 10:34:45;;;;;;;18.08;12.48;;;23.30;99.90;;;;;;4969957;28;20038;-67
2021/09/12 10:37:11;;;;;;;16.25;11.60;;;23.40;99.90;;;;;;4970810;28;20121;-67
2021/09/12 10:39:36;;;;;;;17.02;11.00;;;23.50;99.90;;;;;;4973222;28;20475;-67
2021/09/12 10:42:02;;;;;;;17.65;10.43;;;23.30;99.90;;;;;;4972985;28;20463;-67
2021/09/12 10:44:27;;;;;;;11.93;8.38;;;23.10;99.90;;;;;;4972066;28;20038;-67
2021/09/12 10:46:53;;;;;;;18.02;9.90;;;23.20;99.90;;;;;;4968016;28;20042;-67
2021/09/12 10:49:18;;;;;;;17.05;10.73;;;23.10;99.90;;;;;;4972887;28;20042;-67
2021/09/12 10:51:44;;;;;;;11.85;7.95;;;23.20;99.90;;;;;;4975281;28;20034;-67
2021/09/12 10:54:09;;;;;;;14.95;9.18;;;23.10;99.90;;;;;;4972218;28;20613;-67
2021/09/12 10:56:35;;;;;;;13.05;9.98;;;23.10;99.90;;;;;;4972458;28;20046;-67
2021/09/12 10:59:00;;;;;;;16.83;11.48;;;23.00;99.90;;;;;;4969487;28;20106;-67
2021/09/12 11:01:26;;;;;;;14.48;10.65;;;22.50;99.90;;;;;;4973351;28;20037;-67
2021/09/12 11:03:53;;;;;;;15.68;10.52;;;22.30;99.90;;;;;;4968411;28;20514;-67
2021/09/12 11:06:20;;;;;;;18.13;11.55;;;22.40;99.90;;;;;;4967682;28;20066;-67
2021/09/12 11:08:45;;;;;;;18.33;11.27;;;22.50;99.90;;;;;;4969100;28;20030;-67
2021/09/12 11:11:11;;;;;;;19.85;12.60;;;22.50;99.90;;;;;;4969045;28;20509;-68
2021/09/12 11:13:36;;;;;;;18.95;11.55;;;22.90;99.90;;;;;;4964334;28;20038;-67
2021/09/12 11:16:02;;;;;;;16.63;10.13;;;22.90;99.90;;;;;;4954900;28;20027;-67
2021/09/12 11:18:27;;;;;;;14.38;11.05;;;23.00;99.90;;;;;;4957360;28;20034;-67
2021/09/12 11:20:52;;;;;;;13.88;9.07;;;23.20;99.90;;;;;;4962585;28;20883;-67
2021/09/12 11:23:18;;;;;;;12.93;8.95;;;23.40;99.90;;;;;;4968720;28;20027;-67
2021/09/12 11:25:43;;;;;;;16.98;10.88;;;23.60;99.90;;;;;;4970059;28;20073;-71
2021/09/12 11:28:09;;;;;;;11.93;8.57;;;23.50;99.90;;;;;;4970485;28;20064;-74
2021/09/12 11:30:34;;;;;;;16.15;9.45;;;23.80;99.90;;;;;;4965336;28;20035;-73
2021/09/12 11:33:02;;;;;;;14.95;9.38;;;23.80;99.90;;;;;;4972866;28;20034;-74
2021/09/12 11:35:27;;;;;;;15.15;9.93;;;24.00;99.90;;;;;;4968200;28;20038;-74
2021/09/12 11:37:53;;;;;;;12.18;7.10;;;24.00;99.90;;;;;;4967080;28;20060;-73
2021/09/12 11:40:18;;;;;;;13.20;8.95;;;23.90;99.90;;;;;;4968071;28;20038;-73
2021/09/12 11:42:44;;;;;;;15.63;9.90;;;24.30;99.90;;;;;;4967188;28;20066;-74
2021/09/12 11:45:09;;;;;;;11.98;9.00;;;23.50;99.90;;;;;;4979143;28;20118;-73
2021/09/12 11:47:35;;;;;;;13.00;9.13;;;23.10;99.90;;;;;;4967332;28;20097;-72
2021/09/12 11:50:00;;;;;;;13.60;9.88;;;22.70;99.90;;;;;;4971227;28;20031;-73
2021/09/12 11:52:26;;;;;;;20.27;10.75;;;22.60;99.90;;;;;;4971298;28;20675;-72
2021/09/12 11:54:51;;;;;;;19.33;11.68;;;22.40;99.90;;;;;;4969868;28;20776;-73
2021/09/12 11:57:17;;;;;;;11.70;8.07;;;22.10;99.90;;;;;;4968381;28;20506;-73
2021/09/12 11:59:42;;;;;;;13.60;7.20;;;21.90;99.90;;;;;;4967465;28;20049;-73
2021/09/12 12:02:08;;;;;;;11.70;6.95;;;21.70;99.90;;;;;;4969161;28;20788;-73
2021/09/12 12:04:33;;;;;;;11.70;8.02;;;21.80;99.90;;;;;;4971022;28;20038;-73
2021/09/12 12:06:59;;;;;;;11.32;7.35;;;22.10;99.90;;;;;;4965346;28;20057;-73
2021/09/12 12:09:31;;;;;;;10.10;7.55;;;22.30;99.90;;;;;;4971812;28;20046;-73
2021/09/12 12:11:57;;;;;;;10.98;7.00;;;22.50;99.90;;;;;;4961833;28;20066;-73
2021/09/12 12:14:22;;;;;;;10.63;6.15;;;22.60;99.90;;;;;;4971883;28;20121;-74
2021/09/12 12:16:48;;;;;;;11.55;7.00;;;22.90;99.90;;;;;;4969153;28;20030;-74
2021/09/12 12:19:14;;;;;;;10.70;7.25;;;22.90;99.90;;;;;;4969188;28;20038;-74